sensor_id;sensor_type;location;lat;lon;timestamp;temperature;humidity
1766;DHT22;880;52.452;8.656;2022-11-23T00:01:28;8.00;99.90
1766;DHT22;880;52.452;8.656;2022-11-23T00:03:59;8.00;99.90
1766;DHT22;880;52.452;8.656;2022-11-23T00:06:28;8.00;99.90
1766;DHT22;880;52.452;8.656;2022-11-23T00:08:55;8.00;99.90
1766;DHT22;880;52.452;8.656;2022-11-23T00:11:23;8.00;99.90
1766;DHT22;880;52.452;8.656;2022-11-23T00:13:52;8.00;99.90
1766;DHT22;880;52.452;8.656;2022-11-23T00:16:24;8.00;99.90
1766;DHT22;880;52.452;8.656;2022-11-23T00:18:58;8.00;99.90
1766;DHT22;880;52.452;8.656;2022-11-23T00:21:28;8.00;99.90
1766;DHT22;880;52.452;8.656;2022-11-23T00:23:56;8.10;99.90
1766;DHT22;880;52.452;8.656;2022-11-23T00:26:23;8.00;99.90
1766;DHT22;880;52.452;8.656;2022-11-23T00:28:50;8.00;99.90
1766;DHT22;880;52.452;8.656;2022-11-23T00:31:18;8.00;99.90
1766;DHT22;880;52.452;8.656;2022-11-23T00:33:53;8.10;99.90
1766;DHT22;880;52.452;8.656;2022-11-23T00:36:24;8.10;99.90
1766;DHT22;880;52.452;8.656;2022-11-23T00:38:52;8.10;99.90
1766;DHT22;880;52.452;8.656;2022-11-23T00:41:25;8.20;99.90
1766;DHT22;880;52.452;8.656;2022-11-23T00:43:54;8.20;99.90
1766;DHT22;880;52.452;8.656;2022-11-23T00:46:25;8.20;99.90
1766;DHT22;880;52.452;8.656;2022-11-23T00:48:55;8.20;99.90
1766;DHT22;880;52.452;8.656;2022-11-23T00:51:27;8.20;99.90
1766;DHT22;880;52.452;8.656;2022-11-23T00:53:56;8.20;99.90
1766;DHT22;880;52.452;8.656;2022-11-23T00:56:24;8.20;99.90
1766;DHT22;880;52.452;8.656;2022-11-23T00:58:53;8.10;99.90
1766;DHT22;880;52.452;8.656;2022-11-23T01:01:27;8.20;99.90
1766;DHT22;880;52.452;8.656;2022-11-23T01:03:57;8.20;99.90
1766;DHT22;880;52.452;8.656;2022-11-23T01:06:30;8.20;99.90
1766;DHT22;880;52.452;8.656;2022-11-23T01:09:10;8.20;99.90
1766;DHT22;880;52.452;8.656;2022-11-23T01:11:39;8.20;99.90
1766;DHT22;880;52.452;8.656;2022-11-23T01:14:06;8.30;99.90
1766;DHT22;880;52.452;8.656;2022-11-23T01:16:36;8.30;99.90
1766;DHT22;880;52.452;8.656;2022-11-23T01:19:08;8.30;99.90
1766;DHT22;880;52.452;8.656;2022-11-23T01:21:38;8.30;99.90
1766;DHT22;880;52.452;8.656;2022-11-23T01:24:14;8.30;99.90
1766;DHT22;880;52.452;8.656;2022-11-23T01:26:43;8.40;99.90
1766;DHT22;880;52.452;8.656;2022-11-23T01:29:10;8.30;99.90
1766;DHT22;880;52.452;8.656;2022-11-23T01:31:38;8.40;99.90
1766;DHT22;880;52.452;8.656;2022-11-23T01:34:13;8.40;99.90
1766;DHT22;880;52.452;8.656;2022-11-23T01:36:41;8.40;99.90
1766;DHT22;880;52.452;8.656;2022-11-23T01:39:10;8.40;99.90
1766;DHT22;880;52.452;8.656;2022-11-23T01:41:39;8.40;99.90
1766;DHT22;880;52.452;8.656;2022-11-23T01:44:26;8.40;99.90
1766;DHT22;880;52.452;8.656;2022-11-23T01:47:00;8.40;99.90
1766;DHT22;880;52.452;8.656;2022-11-23T01:49:41;8.30;99.90
1766;DHT22;880;52.452;8.656;2022-11-23T01:52:14;8.40;99.90
1766;DHT22;880;52.452;8.656;2022-11-23T01:54:49;8.30;99.90
1766;DHT22;880;52.452;8.656;2022-11-23T01:57:24;8.30;99.90
1766;DHT22;880;52.452;8.656;2022-11-23T01:59:55;8.30;99.90
1766;DHT22;880;52.452;8.656;2022-11-23T02:02:25;8.20;99.90
1766;DHT22;880;52.452;8.656;2022-11-23T02:04:54;8.20;99.90
1766;DHT22;880;52.452;8.656;2022-11-23T02:07:23;8.20;99.90
1766;DHT22;880;52.452;8.656;2022-11-23T02:09:51;8.20;99.90
1766;DHT22;880;52.452;8.656;2022-11-23T02:12:18;8.20;99.90
1766;DHT22;880;52.452;8.656;2022-11-23T02:14:45;8.20;99.90
1766;DHT22;880;52.452;8.656;2022-11-23T02:17:12;8.20;99.90
1766;DHT22;880;52.452;8.656;2022-11-23T02:20:06;8.20;99.90
1766;DHT22;880;52.452;8.656;2022-11-23T02:22:45;8.10;99.90
1766;DHT22;880;52.452;8.656;2022-11-23T02:28:14;8.00;99.90
1766;DHT22;880;52.452;8.656;2022-11-23T02:30:50;8.00;99.90
1766;DHT22;880;52.452;8.656;2022-11-23T02:33:22;8.00;99.90
1766;DHT22;880;52.452;8.656;2022-11-23T02:36:00;8.00;99.90
1766;DHT22;880;52.452;8.656;2022-11-23T02:38:31;8.10;99.90
1766;DHT22;880;52.452;8.656;2022-11-23T02:40:59;8.00;99.90
1766;DHT22;880;52.452;8.656;2022-11-23T02:43:26;8.10;99.90
1766;DHT22;880;52.452;8.656;2022-11-23T02:45:59;8.10;99.90
1766;DHT22;880;52.452;8.656;2022-11-23T02:48:27;8.10;99.90
1766;DHT22;880;52.452;8.656;2022-11-23T02:50:54;8.10;99.90
1766;DHT22;880;52.452;8.656;2022-11-23T02:53:22;8.10;99.90
1766;DHT22;880;52.452;8.656;2022-11-23T02:55:52;8.10;99.90
1766;DHT22;880;52.452;8.656;2022-11-23T02:58:19;8.10;99.90
1766;DHT22;880;52.452;8.656;2022-11-23T03:00:46;8.20;99.90
1766;DHT22;880;52.452;8.656;2022-11-23T03:03:16;8.20;99.90
1766;DHT22;880;52.452;8.656;2022-11-23T03:05:43;8.20;99.90
1766;DHT22;880;52.452;8.656;2022-11-23T03:08:10;8.20;99.90
1766;DHT22;880;52.452;8.656;2022-11-23T03:10:39;8.20;99.90
1766;DHT22;880;52.452;8.656;2022-11-23T03:13:06;8.30;99.90
1766;DHT22;880;52.452;8.656;2022-11-23T03:15:34;8.40;99.90
1766;DHT22;880;52.452;8.656;2022-11-23T03:18:03;8.30;99.90
1766;DHT22;880;52.452;8.656;2022-11-23T03:20:31;8.40;99.90
1766;DHT22;880;52.452;8.656;2022-11-23T03:22:58;8.40;99.90
1766;DHT22;880;52.452;8.656;2022-11-23T03:25:25;8.50;99.90
1766;DHT22;880;52.452;8.656;2022-11-23T03:27:55;8.50;99.90
1766;DHT22;880;52.452;8.656;2022-11-23T03:30:22;8.50;99.90
1766;DHT22;880;52.452;8.656;2022-11-23T03:32:49;8.50;99.90
1766;DHT22;880;52.452;8.656;2022-11-23T03:35:17;8.50;99.90
1766;DHT22;880;52.452;8.656;2022-11-23T03:38:17;8.50;99.90
1766;DHT22;880;52.452;8.656;2022-11-23T03:40:44;8.50;99.90
1766;DHT22;880;52.452;8.656;2022-11-23T03:43:18;8.50;99.90
1766;DHT22;880;52.452;8.656;2022-11-23T03:45:45;8.60;99.90
1766;DHT22;880;52.452;8.656;2022-11-23T03:48:14;8.50;99.90
1766;DHT22;880;52.452;8.656;2022-11-23T03:50:42;8.50;99.90
1766;DHT22;880;52.452;8.656;2022-11-23T03:53:10;8.50;99.90
1766;DHT22;880;52.452;8.656;2022-11-23T03:55:37;8.50;99.90
1766;DHT22;880;52.452;8.656;2022-11-23T03:58:04;8.50;99.90
1766;DHT22;880;52.452;8.656;2022-11-23T04:00:34;8.50;99.90
1766;DHT22;880;52.452;8.656;2022-11-23T04:03:02;8.50;99.90
1766;DHT22;880;52.452;8.656;2022-11-23T04:05:48;8.50;99.90
1766;DHT22;880;52.452;8.656;2022-11-23T04:08:44;8.50;99.90
1766;DHT22;880;52.452;8.656;2022-11-23T04:11:19;8.40;99.90
1766;DHT22;880;52.452;8.656;2022-11-23T04:13:47;8.40;99.90
1766;DHT22;880;52.452;8.656;2022-11-23T04:16:14;8.40;99.90
1766;DHT22;880;52.452;8.656;2022-11-23T04:18:42;8.40;99.90
1766;DHT22;880;52.452;8.656;2022-11-23T04:21:09;8.40;99.90
1766;DHT22;880;52.452;8.656;2022-11-23T04:23:36;8.40;99.90
1766;DHT22;880;52.452;8.656;2022-11-23T04:26:06;8.40;99.90
1766;DHT22;880;52.452;8.656;2022-11-23T04:28:39;8.40;99.90
1766;DHT22;880;52.452;8.656;2022-11-23T04:31:06;8.40;99.90
1766;DHT22;880;52.452;8.656;2022-11-23T04:33:44;8.40;99.90
1766;DHT22;880;52.452;8.656;2022-11-23T04:36:13;8.50;99.90
1766;DHT22;880;52.452;8.656;2022-11-23T04:38:41;8.40;99.90
1766;DHT22;880;52.452;8.656;2022-11-23T04:41:09;8.50;99.90
1766;DHT22;880;52.452;8.656;2022-11-23T04:43:38;8.50;99.90
1766;DHT22;880;52.452;8.656;2022-11-23T04:46:05;8.50;99.90
1766;DHT22;880;52.452;8.656;2022-11-23T04:48:32;8.50;99.90
1766;DHT22;880;52.452;8.656;2022-11-23T04:50:59;8.50;99.90
1766;DHT22;880;52.452;8.656;2022-11-23T04:53:33;8.40;99.90
1766;DHT22;880;52.452;8.656;2022-11-23T04:56:00;8.40;99.90
1766;DHT22;880;52.452;8.656;2022-11-23T04:58:32;8.40;99.90
1766;DHT22;880;52.452;8.656;2022-11-23T05:01:01;8.30;99.90
1766;DHT22;880;52.452;8.656;2022-11-23T05:03:30;8.30;99.90
1766;DHT22;880;52.452;8.656;2022-11-23T05:06:04;8.30;99.90
1766;DHT22;880;52.452;8.656;2022-11-23T05:08:38;8.20;99.90
1766;DHT22;880;52.452;8.656;2022-11-23T05:11:19;8.30;99.90
1766;DHT22;880;52.452;8.656;2022-11-23T05:13:47;8.20;99.90
1766;DHT22;880;52.452;8.656;2022-11-23T05:16:15;8.20;99.90
1766;DHT22;880;52.452;8.656;2022-11-23T05:18:42;8.20;99.90
1766;DHT22;880;52.452;8.656;2022-11-23T05:21:09;8.20;99.90
1766;DHT22;880;52.452;8.656;2022-11-23T05:23:36;8.20;99.90
1766;DHT22;880;52.452;8.656;2022-11-23T05:26:04;8.20;99.90
1766;DHT22;880;52.452;8.656;2022-11-23T05:28:31;8.20;99.90
1766;DHT22;880;52.452;8.656;2022-11-23T05:31:10;8.20;99.90
1766;DHT22;880;52.452;8.656;2022-11-23T05:33:38;8.20;99.90
1766;DHT22;880;52.452;8.656;2022-11-23T05:36:07;8.20;99.90
1766;DHT22;880;52.452;8.656;2022-11-23T05:38:37;8.20;99.90
1766;DHT22;880;52.452;8.656;2022-11-23T05:41:10;8.10;99.90
1766;DHT22;880;52.452;8.656;2022-11-23T05:43:40;8.10;99.90
1766;DHT22;880;52.452;8.656;2022-11-23T05:46:10;8.10;99.90
1766;DHT22;880;52.452;8.656;2022-11-23T05:48:37;8.10;99.90
1766;DHT22;880;52.452;8.656;2022-11-23T05:51:09;8.10;99.90
1766;DHT22;880;52.452;8.656;2022-11-23T05:53:42;8.10;99.90
1766;DHT22;880;52.452;8.656;2022-11-23T05:56:17;8.00;99.90
1766;DHT22;880;52.452;8.656;2022-11-23T05:58:57;7.90;99.90
1766;DHT22;880;52.452;8.656;2022-11-23T06:01:24;7.90;99.90
1766;DHT22;880;52.452;8.656;2022-11-23T06:03:56;7.90;99.90
1766;DHT22;880;52.452;8.656;2022-11-23T06:06:23;7.90;99.90
1766;DHT22;880;52.452;8.656;2022-11-23T06:08:50;7.80;99.90
1766;DHT22;880;52.452;8.656;2022-11-23T06:11:18;7.80;99.90
1766;DHT22;880;52.452;8.656;2022-11-23T06:13:46;7.80;99.90
1766;DHT22;880;52.452;8.656;2022-11-23T06:16:16;7.90;99.90
1766;DHT22;880;52.452;8.656;2022-11-23T06:18:56;7.90;99.90
1766;DHT22;880;52.452;8.656;2022-11-23T06:21:23;7.90;99.90
1766;DHT22;880;52.452;8.656;2022-11-23T06:23:50;7.90;99.90
1766;DHT22;880;52.452;8.656;2022-11-23T06:26:18;7.90;99.90
1766;DHT22;880;52.452;8.656;2022-11-23T06:28:47;7.90;99.90
1766;DHT22;880;52.452;8.656;2022-11-23T06:31:16;7.90;99.90
1766;DHT22;880;52.452;8.656;2022-11-23T06:33:43;7.90;99.90
1766;DHT22;880;52.452;8.656;2022-11-23T06:36:10;8.00;99.90
1766;DHT22;880;52.452;8.656;2022-11-23T06:38:43;8.00;99.90
1766;DHT22;880;52.452;8.656;2022-11-23T06:41:15;8.00;99.90
1766;DHT22;880;52.452;8.656;2022-11-23T06:43:48;8.00;99.90
1766;DHT22;880;52.452;8.656;2022-11-23T06:46:26;8.10;99.90
1766;DHT22;880;52.452;8.656;2022-11-23T06:48:54;8.00;99.90
1766;DHT22;880;52.452;8.656;2022-11-23T06:51:21;8.10;99.90
1766;DHT22;880;52.452;8.656;2022-11-23T06:53:50;8.10;99.90
1766;DHT22;880;52.452;8.656;2022-11-23T06:56:17;8.10;99.90
1766;DHT22;880;52.452;8.656;2022-11-23T06:58:44;8.00;99.90
1766;DHT22;880;52.452;8.656;2022-11-23T07:01:16;8.00;99.90
1766;DHT22;880;52.452;8.656;2022-11-23T07:03:58;8.00;99.90
1766;DHT22;880;52.452;8.656;2022-11-23T07:06:32;8.00;99.90
1766;DHT22;880;52.452;8.656;2022-11-23T07:09:05;8.00;99.90
1766;DHT22;880;52.452;8.656;2022-11-23T07:11:42;8.00;99.90
1766;DHT22;880;52.452;8.656;2022-11-23T07:14:10;8.00;99.90
1766;DHT22;880;52.452;8.656;2022-11-23T07:16:40;8.00;99.90
1766;DHT22;880;52.452;8.656;2022-11-23T07:19:08;8.00;99.90
1766;DHT22;880;52.452;8.656;2022-11-23T07:21:35;8.00;99.90
1766;DHT22;880;52.452;8.656;2022-11-23T07:24:02;8.10;99.90
1766;DHT22;880;52.452;8.656;2022-11-23T07:26:29;8.10;99.90
1766;DHT22;880;52.452;8.656;2022-11-23T07:28:56;8.00;99.90
1766;DHT22;880;52.452;8.656;2022-11-23T07:31:23;8.10;99.90
1766;DHT22;880;52.452;8.656;2022-11-23T07:33:50;8.10;99.90
1766;DHT22;880;52.452;8.656;2022-11-23T07:36:20;8.10;99.90
1766;DHT22;880;52.452;8.656;2022-11-23T07:38:47;8.20;99.90
1766;DHT22;880;52.452;8.656;2022-11-23T07:41:17;8.20;99.90
1766;DHT22;880;52.452;8.656;2022-11-23T07:44:10;8.20;99.90
1766;DHT22;880;52.452;8.656;2022-11-23T07:46:37;8.20;99.90
1766;DHT22;880;52.452;8.656;2022-11-23T07:49:04;8.20;99.90
1766;DHT22;880;52.452;8.656;2022-11-23T07:51:31;8.20;99.90
1766;DHT22;880;52.452;8.656;2022-11-23T07:53:59;8.30;99.90
1766;DHT22;880;52.452;8.656;2022-11-23T07:56:26;8.30;99.90
1766;DHT22;880;52.452;8.656;2022-11-23T07:58:53;8.30;99.90
1766;DHT22;880;52.452;8.656;2022-11-23T08:01:20;8.40;99.90
1766;DHT22;880;52.452;8.656;2022-11-23T08:03:47;8.40;99.90
1766;DHT22;880;52.452;8.656;2022-11-23T08:06:15;8.40;99.90
1766;DHT22;880;52.452;8.656;2022-11-23T08:08:43;8.40;99.90
1766;DHT22;880;52.452;8.656;2022-11-23T08:11:11;8.40;99.90
1766;DHT22;880;52.452;8.656;2022-11-23T08:13:40;8.50;99.90
1766;DHT22;880;52.452;8.656;2022-11-23T08:16:07;8.50;99.90
1766;DHT22;880;52.452;8.656;2022-11-23T08:18:34;8.50;99.90
1766;DHT22;880;52.452;8.656;2022-11-23T08:21:02;8.50;99.90
1766;DHT22;880;52.452;8.656;2022-11-23T08:23:29;8.50;99.90
1766;DHT22;880;52.452;8.656;2022-11-23T08:25:56;8.50;99.90
1766;DHT22;880;52.452;8.656;2022-11-23T08:28:23;8.60;99.90
1766;DHT22;880;52.452;8.656;2022-11-23T08:30:50;8.60;99.90
1766;DHT22;880;52.452;8.656;2022-11-23T08:33:17;8.60;99.90
1766;DHT22;880;52.452;8.656;2022-11-23T08:35:44;8.70;99.90
1766;DHT22;880;52.452;8.656;2022-11-23T08:38:12;8.80;99.90
1766;DHT22;880;52.452;8.656;2022-11-23T08:40:39;8.80;99.90
1766;DHT22;880;52.452;8.656;2022-11-23T08:43:06;8.90;99.90
1766;DHT22;880;52.452;8.656;2022-11-23T08:45:33;8.90;99.90
1766;DHT22;880;52.452;8.656;2022-11-23T08:48:02;8.90;99.90
1766;DHT22;880;52.452;8.656;2022-11-23T08:50:29;8.90;99.90
1766;DHT22;880;52.452;8.656;2022-11-23T08:52:58;9.00;99.90
1766;DHT22;880;52.452;8.656;2022-11-23T08:55:26;9.00;99.90
1766;DHT22;880;52.452;8.656;2022-11-23T08:57:55;8.90;99.90
1766;DHT22;880;52.452;8.656;2022-11-23T09:00:23;8.90;99.90
1766;DHT22;880;52.452;8.656;2022-11-23T09:02:51;9.00;99.90
1766;DHT22;880;52.452;8.656;2022-11-23T09:05:19;8.90;99.90
1766;DHT22;880;52.452;8.656;2022-11-23T09:07:46;8.90;99.90
1766;DHT22;880;52.452;8.656;2022-11-23T09:10:13;8.90;99.90
1766;DHT22;880;52.452;8.656;2022-11-23T09:12:45;9.00;99.90
1766;DHT22;880;52.452;8.656;2022-11-23T09:15:15;9.10;99.90
1766;DHT22;880;52.452;8.656;2022-11-23T09:17:42;9.10;99.90
1766;DHT22;880;52.452;8.656;2022-11-23T09:20:09;9.20;99.90
1766;DHT22;880;52.452;8.656;2022-11-23T09:22:37;9.20;99.90
1766;DHT22;880;52.452;8.656;2022-11-23T09:25:05;9.20;99.90
1766;DHT22;880;52.452;8.656;2022-11-23T09:27:32;9.20;99.90
1766;DHT22;880;52.452;8.656;2022-11-23T09:29:59;9.30;99.90
1766;DHT22;880;52.452;8.656;2022-11-23T09:32:26;9.30;99.90
1766;DHT22;880;52.452;8.656;2022-11-23T09:34:53;9.30;99.90
1766;DHT22;880;52.452;8.656;2022-11-23T09:37:20;9.30;99.90
1766;DHT22;880;52.452;8.656;2022-11-23T09:39:47;9.40;99.90
1766;DHT22;880;52.452;8.656;2022-11-23T09:42:33;9.30;99.90
1766;DHT22;880;52.452;8.656;2022-11-23T09:45:34;9.40;99.90
1766;DHT22;880;52.452;8.656;2022-11-23T09:54:01;9.50;99.90
1766;DHT22;880;52.452;8.656;2022-11-23T09:56:35;9.50;99.90
1766;DHT22;880;52.452;8.656;2022-11-23T09:59:12;9.60;99.90
1766;DHT22;880;52.452;8.656;2022-11-23T10:01:47;9.70;99.90
1766;DHT22;880;52.452;8.656;2022-11-23T10:04:18;9.70;99.90
1766;DHT22;880;52.452;8.656;2022-11-23T10:06:52;9.80;99.90
1766;DHT22;880;52.452;8.656;2022-11-23T10:10:07;9.90;99.90
1766;DHT22;880;52.452;8.656;2022-11-23T10:15:36;9.90;99.90
1766;DHT22;880;52.452;8.656;2022-11-23T10:21:37;10.00;99.90
1766;DHT22;880;52.452;8.656;2022-11-23T10:24:18;10.00;99.90
1766;DHT22;880;52.452;8.656;2022-11-23T10:26:48;10.10;99.90
1766;DHT22;880;52.452;8.656;2022-11-23T10:31:59;10.00;99.90
1766;DHT22;880;52.452;8.656;2022-11-23T10:37:37;10.00;99.90
1766;DHT22;880;52.452;8.656;2022-11-23T10:40:25;10.00;99.90
1766;DHT22;880;52.452;8.656;2022-11-23T10:43:04;10.00;99.90
1766;DHT22;880;52.452;8.656;2022-11-23T10:45:40;10.10;99.90
1766;DHT22;880;52.452;8.656;2022-11-23T10:48:07;10.10;99.90
1766;DHT22;880;52.452;8.656;2022-11-23T10:50:36;10.10;99.90
1766;DHT22;880;52.452;8.656;2022-11-23T10:53:22;10.10;99.90
1766;DHT22;880;52.452;8.656;2022-11-23T10:55:57;10.20;99.90
1766;DHT22;880;52.452;8.656;2022-11-23T10:58:33;10.20;99.90
1766;DHT22;880;52.452;8.656;2022-11-23T11:01:17;10.30;99.90
1766;DHT22;880;52.452;8.656;2022-11-23T11:03:46;10.80;99.90
1766;DHT22;880;52.452;8.656;2022-11-23T11:06:21;11.30;99.90
1766;DHT22;880;52.452;8.656;2022-11-23T11:08:57;11.80;99.90
1766;DHT22;880;52.452;8.656;2022-11-23T11:11:32;12.10;99.90
1766;DHT22;880;52.452;8.656;2022-11-23T11:14:15;12.40;99.90
1766;DHT22;880;52.452;8.656;2022-11-23T11:16:54;12.50;99.90
1766;DHT22;880;52.452;8.656;2022-11-23T11:19:30;12.60;99.90
1766;DHT22;880;52.452;8.656;2022-11-23T11:24:55;12.70;99.90
1766;DHT22;880;52.452;8.656;2022-11-23T11:27:24;12.60;99.90
1766;DHT22;880;52.452;8.656;2022-11-23T11:29:56;12.60;99.90
1766;DHT22;880;52.452;8.656;2022-11-23T11:35:35;12.80;99.90
1766;DHT22;880;52.452;8.656;2022-11-23T11:40:49;12.50;99.90
1766;DHT22;880;52.452;8.656;2022-11-23T11:43:22;12.40;99.90
1766;DHT22;880;52.452;8.656;2022-11-23T11:46:11;12.40;99.90
1766;DHT22;880;52.452;8.656;2022-11-23T11:49:05;12.70;99.90
1766;DHT22;880;52.452;8.656;2022-11-23T11:51:40;12.90;99.90
1766;DHT22;880;52.452;8.656;2022-11-23T11:56:43;12.80;99.90
1766;DHT22;880;52.452;8.656;2022-11-23T12:02:13;13.10;99.90
1766;DHT22;880;52.452;8.656;2022-11-23T12:05:10;13.60;99.90
1766;DHT22;880;52.452;8.656;2022-11-23T12:08:10;13.90;99.90
1766;DHT22;880;52.452;8.656;2022-11-23T12:11:02;14.20;99.90
1766;DHT22;880;52.452;8.656;2022-11-23T12:13:33;14.40;99.90
1766;DHT22;880;52.452;8.656;2022-11-23T12:24:37;14.40;99.90
1766;DHT22;880;52.452;8.656;2022-11-23T12:33:24;14.70;99.90
1766;DHT22;880;52.452;8.656;2022-11-23T12:50:24;13.30;99.90
1766;DHT22;880;52.452;8.656;2022-11-23T12:58:53;13.10;99.90
1766;DHT22;880;52.452;8.656;2022-11-23T13:01:31;13.20;99.90
1766;DHT22;880;52.452;8.656;2022-11-23T13:10:56;13.90;99.90
1766;DHT22;880;52.452;8.656;2022-11-23T13:22:39;14.00;99.90
1766;DHT22;880;52.452;8.656;2022-11-23T13:25:23;13.80;99.90
1766;DHT22;880;52.452;8.656;2022-11-23T13:30:35;13.40;99.90
1766;DHT22;880;52.452;8.656;2022-11-23T13:33:25;13.40;99.90
1766;DHT22;880;52.452;8.656;2022-11-23T13:35:59;13.60;99.90
1766;DHT22;880;52.452;8.656;2022-11-23T13:38:41;13.60;99.90
1766;DHT22;880;52.452;8.656;2022-11-23T13:41:57;13.50;99.90
1766;DHT22;880;52.452;8.656;2022-11-23T13:44:28;13.50;99.90
1766;DHT22;880;52.452;8.656;2022-11-23T13:47:06;13.40;99.90
1766;DHT22;880;52.452;8.656;2022-11-23T13:49:50;13.40;99.90
1766;DHT22;880;52.452;8.656;2022-11-23T13:55:04;13.20;99.90
1766;DHT22;880;52.452;8.656;2022-11-23T13:57:45;13.10;99.90
1766;DHT22;880;52.452;8.656;2022-11-23T14:00:49;13.00;99.90
1766;DHT22;880;52.452;8.656;2022-11-23T14:03:46;12.80;99.90
1766;DHT22;880;52.452;8.656;2022-11-23T14:06:42;12.60;99.90
1766;DHT22;880;52.452;8.656;2022-11-23T14:09:34;12.40;99.90
1766;DHT22;880;52.452;8.656;2022-11-23T14:12:30;12.30;99.90
1766;DHT22;880;52.452;8.656;2022-11-23T14:24:35;12.10;99.90
1766;DHT22;880;52.452;8.656;2022-11-23T14:27:27;12.10;99.90
1766;DHT22;880;52.452;8.656;2022-11-23T14:42:54;12.50;99.90
1766;DHT22;880;52.452;8.656;2022-11-23T14:45:26;12.60;99.90
1766;DHT22;880;52.452;8.656;2022-11-23T14:47:54;12.50;99.90
1766;DHT22;880;52.452;8.656;2022-11-23T14:50:26;12.40;99.90
1766;DHT22;880;52.452;8.656;2022-11-23T14:52:56;12.20;99.90
1766;DHT22;880;52.452;8.656;2022-11-23T14:55:27;12.00;99.90
1766;DHT22;880;52.452;8.656;2022-11-23T14:58:01;11.90;99.90
1766;DHT22;880;52.452;8.656;2022-11-23T15:00:35;11.70;99.90
1766;DHT22;880;52.452;8.656;2022-11-23T15:03:08;11.60;99.90
1766;DHT22;880;52.452;8.656;2022-11-23T15:06:11;11.50;99.90
1766;DHT22;880;52.452;8.656;2022-11-23T15:12:07;11.30;99.90
1766;DHT22;880;52.452;8.656;2022-11-23T15:14:46;11.20;99.90
1766;DHT22;880;52.452;8.656;2022-11-23T15:17:20;11.20;99.90
1766;DHT22;880;52.452;8.656;2022-11-23T15:19:58;11.10;99.90
1766;DHT22;880;52.452;8.656;2022-11-23T15:22:27;11.00;99.90
1766;DHT22;880;52.452;8.656;2022-11-23T15:25:07;11.00;99.90
1766;DHT22;880;52.452;8.656;2022-11-23T15:27:40;11.00;99.90
1766;DHT22;880;52.452;8.656;2022-11-23T15:30:21;10.80;99.90
1766;DHT22;880;52.452;8.656;2022-11-23T15:33:01;10.80;99.90
1766;DHT22;880;52.452;8.656;2022-11-23T15:35:36;10.70;99.90
1766;DHT22;880;52.452;8.656;2022-11-23T15:38:10;10.60;99.90
1766;DHT22;880;52.452;8.656;2022-11-23T15:40:41;10.50;99.90
1766;DHT22;880;52.452;8.656;2022-11-23T15:43:14;10.50;99.90
1766;DHT22;880;52.452;8.656;2022-11-23T15:48:14;10.30;99.90
1766;DHT22;880;52.452;8.656;2022-11-23T15:53:17;10.10;99.90
1766;DHT22;880;52.452;8.656;2022-11-23T15:55:48;10.10;99.90
1766;DHT22;880;52.452;8.656;2022-11-23T15:58:17;10.00;99.90
1766;DHT22;880;52.452;8.656;2022-11-23T16:01:11;9.90;99.90
1766;DHT22;880;52.452;8.656;2022-11-23T16:06:32;9.70;99.90
1766;DHT22;880;52.452;8.656;2022-11-23T16:09:01;9.70;99.90
1766;DHT22;880;52.452;8.656;2022-11-23T16:11:43;9.60;99.90
1766;DHT22;880;52.452;8.656;2022-11-23T16:14:19;9.60;99.90
1766;DHT22;880;52.452;8.656;2022-11-23T16:17:11;9.60;99.90
1766;DHT22;880;52.452;8.656;2022-11-23T16:19:51;9.50;99.90
1766;DHT22;880;52.452;8.656;2022-11-23T16:22:31;9.50;99.90
1766;DHT22;880;52.452;8.656;2022-11-23T16:25:16;9.40;99.90
1766;DHT22;880;52.452;8.656;2022-11-23T16:27:59;9.30;99.90
1766;DHT22;880;52.452;8.656;2022-11-23T16:30:35;9.20;99.90
1766;DHT22;880;52.452;8.656;2022-11-23T16:33:05;9.20;99.90
1766;DHT22;880;52.452;8.656;2022-11-23T16:35:32;9.10;99.90
1766;DHT22;880;52.452;8.656;2022-11-23T16:37:59;9.00;99.90
1766;DHT22;880;52.452;8.656;2022-11-23T16:40:26;9.00;99.90
1766;DHT22;880;52.452;8.656;2022-11-23T16:42:53;8.90;99.90
1766;DHT22;880;52.452;8.656;2022-11-23T16:45:20;8.90;99.90
1766;DHT22;880;52.452;8.656;2022-11-23T16:47:52;8.90;99.90
1766;DHT22;880;52.452;8.656;2022-11-23T16:50:22;9.00;99.90
1766;DHT22;880;52.452;8.656;2022-11-23T16:52:50;8.90;99.90
1766;DHT22;880;52.452;8.656;2022-11-23T16:55:17;8.90;99.90
1766;DHT22;880;52.452;8.656;2022-11-23T16:57:44;8.80;99.90
1766;DHT22;880;52.452;8.656;2022-11-23T17:00:20;8.70;99.90
1766;DHT22;880;52.452;8.656;2022-11-23T17:02:48;8.70;99.90
1766;DHT22;880;52.452;8.656;2022-11-23T17:05:18;8.70;99.90
1766;DHT22;880;52.452;8.656;2022-11-23T17:07:46;8.70;99.90
1766;DHT22;880;52.452;8.656;2022-11-23T17:10:13;8.60;99.90
1766;DHT22;880;52.452;8.656;2022-11-23T17:12:48;8.50;99.90
1766;DHT22;880;52.452;8.656;2022-11-23T17:15:18;8.50;99.90
1766;DHT22;880;52.452;8.656;2022-11-23T17:17:47;8.50;99.90
1766;DHT22;880;52.452;8.656;2022-11-23T17:20:15;8.40;99.90
1766;DHT22;880;52.452;8.656;2022-11-23T17:22:43;8.40;99.90
1766;DHT22;880;52.452;8.656;2022-11-23T17:25:11;8.40;99.90
1766;DHT22;880;52.452;8.656;2022-11-23T17:27:41;8.40;99.90
1766;DHT22;880;52.452;8.656;2022-11-23T17:30:13;8.40;99.90
1766;DHT22;880;52.452;8.656;2022-11-23T17:32:41;8.40;99.90
1766;DHT22;880;52.452;8.656;2022-11-23T17:35:08;8.40;99.90
1766;DHT22;880;52.452;8.656;2022-11-23T17:37:35;8.30;99.90
1766;DHT22;880;52.452;8.656;2022-11-23T17:40:03;8.20;99.90
1766;DHT22;880;52.452;8.656;2022-11-23T17:42:30;8.20;99.90
1766;DHT22;880;52.452;8.656;2022-11-23T17:44:57;8.20;99.90
1766;DHT22;880;52.452;8.656;2022-11-23T17:47:28;8.20;99.90
1766;DHT22;880;52.452;8.656;2022-11-23T17:49:56;8.20;99.90
1766;DHT22;880;52.452;8.656;2022-11-23T17:52:23;8.10;99.90
1766;DHT22;880;52.452;8.656;2022-11-23T17:54:51;8.20;99.90
1766;DHT22;880;52.452;8.656;2022-11-23T17:57:21;8.10;99.90
1766;DHT22;880;52.452;8.656;2022-11-23T17:59:50;8.20;99.90
1766;DHT22;880;52.452;8.656;2022-11-23T18:02:17;8.10;99.90
1766;DHT22;880;52.452;8.656;2022-11-23T18:04:46;8.10;99.90
1766;DHT22;880;52.452;8.656;2022-11-23T18:07:14;8.00;99.90
1766;DHT22;880;52.452;8.656;2022-11-23T18:09:42;8.00;99.90
1766;DHT22;880;52.452;8.656;2022-11-23T18:12:09;7.90;99.90
1766;DHT22;880;52.452;8.656;2022-11-23T18:14:36;7.80;99.90
1766;DHT22;880;52.452;8.656;2022-11-23T18:17:03;7.80;99.90
1766;DHT22;880;52.452;8.656;2022-11-23T18:19:30;7.80;99.90
1766;DHT22;880;52.452;8.656;2022-11-23T18:21:58;7.80;99.90
1766;DHT22;880;52.452;8.656;2022-11-23T18:24:24;7.80;99.90
1766;DHT22;880;52.452;8.656;2022-11-23T18:26:52;7.90;99.90
1766;DHT22;880;52.452;8.656;2022-11-23T18:29:19;8.00;99.90
1766;DHT22;880;52.452;8.656;2022-11-23T18:31:46;8.00;99.90
1766;DHT22;880;52.452;8.656;2022-11-23T18:34:13;8.00;99.90
1766;DHT22;880;52.452;8.656;2022-11-23T18:36:40;8.00;99.90
1766;DHT22;880;52.452;8.656;2022-11-23T18:39:07;8.10;99.90
1766;DHT22;880;52.452;8.656;2022-11-23T18:41:34;8.10;99.90
1766;DHT22;880;52.452;8.656;2022-11-23T18:44:01;8.10;99.90
1766;DHT22;880;52.452;8.656;2022-11-23T18:46:28;8.10;99.90
1766;DHT22;880;52.452;8.656;2022-11-23T18:48:55;8.20;99.90
1766;DHT22;880;52.452;8.656;2022-11-23T18:51:23;8.10;99.90
1766;DHT22;880;52.452;8.656;2022-11-23T18:53:50;8.10;99.90
1766;DHT22;880;52.452;8.656;2022-11-23T18:56:18;8.20;99.90
1766;DHT22;880;52.452;8.656;2022-11-23T18:58:46;8.20;99.90
1766;DHT22;880;52.452;8.656;2022-11-23T19:01:15;8.20;99.90
1766;DHT22;880;52.452;8.656;2022-11-23T19:03:45;8.20;99.90
1766;DHT22;880;52.452;8.656;2022-11-23T19:06:14;8.20;99.90
1766;DHT22;880;52.452;8.656;2022-11-23T19:08:45;8.20;99.90